Flight Track Log - Related Links

Times and Time Zones

All times are in EDT time to prevent confusion due to time zone crossing. See the JIA2342 flight status page for this flight to view local times or setup timezone preferences in your user account.

Time Position Orientation Groundspeed Altitude Reporting Facility
EDT Latitude Longitude Course Direction KTS MPH feet Rate Location/Type
Mon 08:43:04 PM 38.8333 -77.0333 90° East 161 185 1,800  Level Potomac TRACON
Mon 08:44:04 PM 38.7667 -77.0333 180° South 213 245 4,200 2,310 Climbing Potomac TRACON
Mon 08:45:58 PM 38.7978 -76.8994 73° East 171 197 8,500 2,271 Climbing Washington Center
Mon 08:46:00 PM 38.9978 -76.4518 74° East  Level FlightAware Approximate
Mon 08:47:00 PM 39.0232 -76.2971 67° East  Level FlightAware Approximate
Mon 08:47:01 PM 38.8694 -76.8314 36° Northeast 208 239 10,900  Level Washington Center
Mon 08:47:58 PM 38.9081 -76.7281 64° Northeast 265 305 13,200 2,000 Climbing Washington Center
Mon 08:48:00 PM 39.0333 -76.1400 90° East  Level FlightAware Approximate
Mon 08:48:58 PM 38.9444 -76.6164 67° East 308 354 14,800  Level Washington Center
Mon 08:49:59 PM 38.9828 -76.4994 67° East 340 391 16,100 1,240 Climbing Washington Center
Mon 08:50:59 PM 39.0419 -76.3881 56° Northeast 357 411 17,300 1,339 Climbing Washington Center
Mon 08:52:00 PM 39.1094 -76.2792 51° Northeast 381 438 18,800 1,388 Climbing Washington Center
Mon 08:53:00 PM 39.1767 -76.1700 52° Northeast 386 444 20,100 1,322 Climbing Washington Center
Mon 08:53:58 PM 39.2522 -76.0606 48° Northeast 396 456 21,400 1,210 Climbing Washington Center
Mon 08:54:59 PM 39.3172 -75.9511 52° Northeast 396 456 22,500 1,041 Climbing Washington Center
Mon 08:55:59 PM 39.3883 -75.8386 51° Northeast 396 456 23,500 992 Climbing Washington Center
Mon 08:57:00 PM 39.4592 -75.7233 51° Northeast 396 456 24,500 885 Climbing Washington Center
Mon 08:58:01 PM 39.5322 -75.6078 51° Northeast 402 463 25,300 807 Climbing Washington Center
Mon 08:58:59 PM 39.6053 -75.4892 51° Northeast 402 463 26,100 807 Climbing Washington Center
Mon 09:00:00 PM 39.6800 -75.3650 52° Northeast 413 475 26,900 783 Climbing Washington Center
Mon 09:00:54 PM 39.7469 -75.2556 51° Northeast 413 475 27,600 730 Climbing New York Center
Mon 09:01:55 PM 39.8114 -75.1433 53° Northeast 433 498 28,300 689 Climbing New York Center
Mon 09:02:56 PM 39.8933 -75.0186 49° Northeast 438 504 29,000 353 Climbing New York Center
Mon 09:03:54 PM 39.9908 -74.9108 40° Northeast 443 510 29,000  Level New York Center
Mon 09:04:56 PM 40.0908 -74.7919 42° Northeast 442 509 29,000  Level New York Center
Mon 09:05:54 PM 40.1883 -74.6808 41° Northeast 452 520 29,000  Level New York Center
Mon 09:06:55 PM 40.2900 -74.5667 41° Northeast 468 539 29,000 -100 Level New York Center
Mon 09:07:54 PM 40.3817 -74.4411 46° Northeast 473 544 28,800 -797 Descending New York Center
Mon 09:09:33 PM 40.5208 -74.2419 47° Northeast 494 568 26,900 -1,132 Descending Boston Center
Mon 09:10:33 PM 40.6081 -74.1186 47° Northeast 474 545 25,800 -1,210 Descending Boston Center
Mon 09:11:32 PM 40.7039 -73.9897 46° Northeast 454 522 24,500 -700 Descending Boston Center
Mon 09:13:00 PM 40.7966 -73.8402 56° Northeast  Level FlightAware Approximate
Mon 09:14:33 PM 40.9861 -73.7433 33° Northeast 392 451 23,000  Level Boston Center
Mon 09:16:33 PM 41.2194 -73.7481 359° North 403 464 22,600 -467 Descending Boston Center
Mon 09:17:33 PM 41.3383 -73.7506 359° North 408 470 21,600 -1,100 Descending Boston Center
Mon 09:18:33 PM 41.4403 -73.7553 358° North 413 475 20,400 -1,850 Descending Boston Center
Mon 09:19:33 PM 41.5569 -73.7578 359° North 399 459 17,900 -2,250 Descending Boston Center
Mon 09:20:00 PM 41.2849 -73.2249 33° Northeast  Level FlightAware Approximate
Mon 09:20:33 PM 41.6592 -73.7628 358° North 368 423 15,900  Level Boston Center
Mon 09:21:33 PM 41.7592 -73.7647 359° North 363 418 14,500 -1,487 Descending Boston Center
Mon 09:22:30 PM 41.8589 -73.7725 357° North 375 432 13,000 -1,554 Descending Boston Center
Mon 09:23:25 PM 41.9550 -73.7550 North 376 433 11,600 -1,043 Descending Boston Center
Mon 09:24:25 PM 42.0553 -73.7403 North 359 413 11,000 -283 Descending Boston Center
Mon 09:25:32 PM 42.1636 -73.7453 358° North 350 403 11,000 -197 Level Boston Center
Mon 09:26:27 PM 42.2489 -73.7694 348° North 354 407 10,600 -730 Descending Boston Center
Mon 09:27:27 PM 42.3275 -73.8161 336° Northwest 296 341 9,600 -1,140 Descending Boston Center
Mon 09:28:28 PM 42.4039 -73.8628 336° Northwest 292 336 8,300 -1,279 Descending Boston Center
Mon 09:29:29 PM 42.4806 -73.9125 334° Northwest 304 350 7,000 -1,190 Descending Boston Center
Mon 09:30:29 PM 42.5489 -73.9506 338° Northwest 266 306 5,900 -1,140 Descending Boston Center
Mon 09:31:30 PM 42.6275 -73.9753 347° North 274 315 4,700 -942 Descending Boston Center
Mon 09:32:30 PM 42.7047 -73.9856 354° North 281 323 4,000 -793 Descending Boston Center
Mon 09:33:31 PM 42.7858 -73.9903 358° North 283 326 3,100 -492 Descending Boston Center
Mon 09:34:32 PM 42.8647 -74.0036 353° North 279 321 3,000 -99 Descending Boston Center
Mon 09:35:32 PM 42.9175 -73.9653 28° Northeast 238 274 2,900 -298 Descending Boston Center
Mon 09:36:33 PM 42.9183 -73.8917 89° East 183 211 2,400 -492 Descending Boston Center

Login

Don't have an account? Register now (free) for customized features, flight alerts, and more!